Time;durP1;ratioP1;P1;durP2;ratioP2;P2;SDS_P1;SDS_P2;PMS_P1;PMS_P2;Temp;Humidity;BMP_temperature;BMP_pressure;BME280_temperature;BME280_humidity;BME280_pressure;Samples;Min_cycle;Max_cycle;Signal;HPM_P1;HPM_P2
2022/11/09 00:01:27;;;;;;;;;;;8.60;99.90;;;;;;5036344;28;20025;-76
2022/11/09 00:04:04;;;;;;;43.58;21.98;;;8.50;99.90;;;;;;5054360;28;20636;-76
2022/11/09 00:06:30;;;;;;;42.17;21.83;;;8.60;99.90;;;;;;5053147;28;20647;-76
2022/11/09 00:08:56;;;;;;;42.42;22.42;;;8.60;99.90;;;;;;5055241;28;20057;-77
2022/11/09 00:11:22;;;;;;;;;;;8.50;99.90;;;;;;5056611;28;20033;-77
2022/11/09 00:13:48;;;;;;;58.50;28.33;;;8.50;99.90;;;;;;5052036;28;20292;-76
2022/11/09 00:16:18;;;;;;;59.55;27.58;;;8.40;99.90;;;;;;5032998;28;20074;-76
2022/11/09 00:18:47;;;;;;;65.65;29.88;;;8.40;99.90;;;;;;5050132;28;20132;-76
2022/11/09 00:21:15;;;;;;;63.95;27.83;;;8.40;99.90;;;;;;5032564;28;20029;-76
2022/11/09 00:23:41;;;;;;;58.63;28.30;;;8.30;99.90;;;;;;5050003;28;20477;-76
2022/11/09 00:26:07;;;;;;;;;;;8.30;99.90;;;;;;5032404;28;20053;-76
2022/11/09 00:28:33;;;;;;;53.27;24.23;;;8.30;99.90;;;;;;5050222;28;19912;-76
2022/11/09 00:31:04;;;;;;;61.33;27.75;;;8.20;99.90;;;;;;5050651;28;20500;-76
2022/11/09 00:33:30;;;;;;;57.85;26.83;;;8.20;99.90;;;;;;5032704;28;20562;-76
2022/11/09 00:35:55;;;;;;;;;;;8.20;99.90;;;;;;5032789;28;20025;-76
2022/11/09 00:38:21;;;;;;;58.47;27.35;;;8.10;99.90;;;;;;5032197;28;20451;-76
2022/11/09 00:40:47;;;;;;;50.90;24.15;;;8.10;99.90;;;;;;5050366;28;20064;-76
2022/11/09 00:43:13;;;;;;;;;;;8.20;99.90;;;;;;5033067;28;20056;-76
2022/11/09 00:45:42;;;;;;;47.42;22.48;;;8.10;99.90;;;;;;5032426;28;19963;-76
2022/11/09 00:48:08;;;;;;;41.63;21.73;;;8.10;99.90;;;;;;5050898;28;20100;-76
2022/11/09 00:50:33;;;;;;;;;;;8.20;99.90;;;;;;5049840;28;20028;-76
2022/11/09 00:52:59;;;;;;;36.20;18.77;;;8.20;99.90;;;;;;5033028;28;19909;-76
2022/11/09 00:55:25;;;;;;;38.10;20.08;;;8.10;99.90;;;;;;5033263;28;20037;-76
2022/11/09 00:57:51;;;;;;;;;;;8.10;99.90;;;;;;5033560;28;20025;-76
2022/11/09 01:00:22;;;;;;;35.35;18.33;;;8.20;99.90;;;;;;5050729;28;20376;-76
2022/11/09 01:02:51;;;;;;;39.10;20.88;;;8.20;99.90;;;;;;5050358;28;20590;-75
2022/11/09 01:05:17;;;;;;;39.90;19.63;;;8.30;99.90;;;;;;5032283;28;20136;-75
2022/11/09 01:07:43;;;;;;;38.70;19.90;;;8.20;99.90;;;;;;5032434;28;20033;-76
2022/11/09 01:10:09;;;;;;;;;;;8.20;99.90;;;;;;5033341;28;20043;-77
2022/11/09 01:12:35;;;;;;;31.13;18.23;;;8.30;99.90;;;;;;5050938;28;20020;-76
2022/11/09 01:15:00;;;;;;;;;;;8.30;99.90;;;;;;5051914;28;20071;-76
2022/11/09 01:17:26;;;;;;;35.65;19.73;;;8.30;99.90;;;;;;5051019;28;19913;-76
2022/11/09 01:19:51;;;;;;;;;;;8.30;99.90;;;;;;5033259;28;20029;-76
2022/11/09 01:22:18;;;;;;;45.28;22.63;;;8.20;99.90;;;;;;5031964;28;19905;-77
2022/11/09 01:24:44;;;;;;;48.17;23.63;;;8.20;99.90;;;;;;5032246;28;20059;-76
2022/11/09 01:27:09;;;;;;;;;;;8.20;99.90;;;;;;5033272;28;20112;-76
2022/11/09 01:29:35;;;;;;;43.42;21.42;;;8.10;99.90;;;;;;5032612;28;19909;-76
2022/11/09 01:32:01;;;;;;;;;;;8.10;99.90;;;;;;5032828;28;20078;-75
2022/11/09 01:34:30;;;;;;;36.20;20.85;;;8.10;99.90;;;;;;5032202;28;19916;-75
2022/11/09 01:36:55;;;;;;;36.33;19.98;;;8.20;99.90;;;;;;5050006;28;20504;-76
2022/11/09 01:39:21;;;;;;;;;;;8.20;99.90;;;;;;5032895;28;20035;-76
2022/11/09 01:41:47;;;;;;;38.67;18.88;;;8.10;99.90;;;;;;5033079;28;19913;-76
2022/11/09 01:44:18;;;;;;;38.50;18.90;;;8.10;99.90;;;;;;5050599;28;20436;-76
2022/11/09 01:46:47;;;;;;;42.33;21.83;;;8.10;99.90;;;;;;5032652;28;20033;-77
2022/11/09 01:49:40;;;;;;;34.85;19.95;;;8.10;99.90;;;;;;5032281;28;20788;-76
2022/11/09 01:52:20;;;;;;;36.70;21.48;;;8.10;99.90;;;;;;5049893;28;20033;-76
2022/11/09 01:54:49;;;;;;;27.77;17.23;;;8.10;99.90;;;;;;5051065;28;20033;-76
2022/11/09 01:57:23;;;;;;;31.90;19.05;;;8.10;99.90;;;;;;5032557;28;20119;-76
2022/11/09 01:59:58;;;;;;;32.28;18.83;;;8.10;99.90;;;;;;5050558;28;20124;-77
2022/11/09 02:02:24;;;;;;;29.73;17.20;;;8.20;99.90;;;;;;5050923;28;20025;-76
2022/11/09 02:04:52;;;;;;;;;;;8.20;99.90;;;;;;5051728;28;20087;-76
2022/11/09 02:07:21;;;;;;;32.55;17.98;;;8.20;99.90;;;;;;5050963;28;20007;-77
2022/11/09 02:10:05;;;;;;;35.50;21.33;;;8.20;99.90;;;;;;5032767;28;20064;-76
2022/11/09 02:12:33;;;;;;;33.20;19.38;;;8.20;99.90;;;;;;5033212;28;20033;-76
2022/11/09 02:15:02;;;;;;;35.38;19.38;;;8.20;99.90;;;;;;5050673;28;20025;-76
2022/11/09 02:17:29;;;;;;;32.95;19.13;;;8.20;99.90;;;;;;5050308;28;20025;-76
2022/11/09 02:19:57;;;;;;;36.40;20.10;;;8.30;99.90;;;;;;5051358;28;20108;-76
2022/11/09 02:22:23;;;;;;;33.22;19.33;;;8.30;99.90;;;;;;5033324;28;20035;-76
2022/11/09 02:24:49;;;;;;;;;;;8.40;99.90;;;;;;5051456;28;20057;-76
2022/11/09 02:27:15;;;;;;;31.45;18.23;;;8.40;99.90;;;;;;5050751;28;20373;-77
2022/11/09 02:29:42;;;;;;;;;;;8.40;99.90;;;;;;5052579;28;20096;-76
2022/11/09 02:32:16;;;;;;;32.50;19.17;;;8.40;99.90;;;;;;5052941;28;19962;-77
2022/11/09 02:34:42;;;;;;;34.03;19.05;;;8.50;99.90;;;;;;5033635;28;20025;-77
2022/11/09 02:37:07;;;;;;;;;;;8.60;99.90;;;;;;5031021;28;20047;-76
2022/11/09 02:39:33;;;;;;;28.55;16.92;;;8.60;99.90;;;;;;5047678;28;20527;-76
2022/11/09 02:42:05;;;;;;;;;;;8.70;99.90;;;;;;5030610;28;20032;-75
2022/11/09 02:44:35;;;;;;;28.55;18.00;;;8.70;99.90;;;;;;5047703;28;19905;-76
2022/11/09 02:47:00;;;;;;;35.35;21.65;;;8.70;99.90;;;;;;5047490;28;20041;-75
2022/11/09 02:49:26;;;;;;;;;;;8.70;99.90;;;;;;5029910;28;20040;-76
2022/11/09 02:51:52;;;;;;;38.40;21.95;;;8.70;99.90;;;;;;5047982;28;19905;-76
2022/11/09 02:54:17;;;;;;;;;;;8.70;99.90;;;;;;5048969;28;20029;-76
2022/11/09 02:56:43;;;;;;;41.42;22.42;;;8.80;99.90;;;;;;5030347;28;20167;-75
2022/11/09 02:59:08;;;;;;;;;;;8.70;99.90;;;;;;5048020;28;20060;-76
2022/11/09 03:01:34;;;;;;;34.47;20.58;;;8.80;99.90;;;;;;5048525;28;20400;-75
2022/11/09 03:03:59;;;;;;;;;;;8.80;99.90;;;;;;5048594;28;20065;-76
2022/11/09 03:06:33;;;;;;;32.58;20.42;;;8.80;99.90;;;;;;5033713;28;20568;-76
2022/11/09 03:09:10;;;;;;;35.00;19.92;;;8.80;99.90;;;;;;5051782;28;20021;-75
2022/11/09 03:11:36;;;;;;;34.35;20.65;;;8.80;99.90;;;;;;5052478;28;20116;-75
2022/11/09 03:14:03;;;;;;;31.05;18.38;;;8.80;99.90;;;;;;5052675;28;20056;-76
2022/11/09 03:16:28;;;;;;;33.28;20.08;;;8.80;99.90;;;;;;5051451;28;20033;-76
2022/11/09 03:18:54;;;;;;;;;;;8.80;99.90;;;;;;5034780;28;20112;-76
2022/11/09 03:21:23;;;;;;;36.65;21.05;;;8.70;99.90;;;;;;5034253;28;19971;-76
2022/11/09 03:23:49;;;;;;;37.30;21.00;;;8.70;99.90;;;;;;5034774;28;20045;-76
2022/11/09 03:26:16;;;;;;;36.63;23.30;;;8.80;99.90;;;;;;5033990;28;20073;-76
2022/11/09 03:28:41;;;;;;;42.15;24.02;;;8.80;99.90;;;;;;5052244;28;20501;-76
2022/11/09 03:31:07;;;;;;;;;;;8.80;99.90;;;;;;5052394;28;20033;-75
2022/11/09 03:33:33;;;;;;;51.63;27.58;;;8.80;99.90;;;;;;5033961;28;19928;-75
2022/11/09 03:35:58;;;;;;;;;;;8.70;99.90;;;;;;5034778;28;20035;-76
2022/11/09 03:38:24;;;;;;;51.95;29.42;;;8.80;99.90;;;;;;5051708;28;19931;-76
2022/11/09 03:40:50;;;;;;;;;;;8.80;99.90;;;;;;5034088;28;20037;-76
2022/11/09 03:43:15;;;;;;;42.28;23.35;;;8.90;99.90;;;;;;5051383;28;19909;-76
2022/11/09 03:45:41;;;;;;;;;;;8.90;99.90;;;;;;5051846;28;20037;-75
2022/11/09 03:48:07;;;;;;;51.25;23.98;;;8.80;99.90;;;;;;5033081;28;19905;-76
2022/11/09 03:50:33;;;;;;;;;;;8.80;99.90;;;;;;5051863;28;20473;-74
2022/11/09 03:52:59;;;;;;;50.60;22.30;;;8.80;99.90;;;;;;5033704;28;19952;-76
2022/11/09 03:55:25;;;;;;;42.88;21.73;;;8.70;99.90;;;;;;5033564;28;20031;-76
2022/11/09 03:57:52;;;;;;;;;;;8.60;99.90;;;;;;5051730;28;20037;-76
2022/11/09 04:00:19;;;;;;;;;;;8.60;99.90;;;;;;5051828;28;19995;-76
2022/11/09 04:02:44;;;;;;;46.03;23.02;;;8.60;99.90;;;;;;5051348;28;19936;-76
2022/11/09 04:05:10;;;;;;;;;;;8.50;99.90;;;;;;5051212;28;20523;-77
2022/11/09 04:07:36;;;;;;;48.72;23.27;;;8.50;99.90;;;;;;5051101;28;20331;-77
2022/11/09 04:10:03;;;;;;;54.17;26.15;;;8.50;99.90;;;;;;5050763;28;20509;-76
2022/11/09 04:12:29;;;;;;;48.22;23.23;;;8.40;99.90;;;;;;5050141;28;20040;-77
2022/11/09 04:14:57;;;;;;;;;;;8.50;99.90;;;;;;5050278;28;20032;-77
2022/11/09 04:17:23;;;;;;;55.75;26.60;;;8.50;99.90;;;;;;5032837;28;19905;-76
2022/11/09 04:19:48;;;;;;;;;;;8.40;99.90;;;;;;5051109;28;20025;-76
2022/11/09 04:22:14;;;;;;;52.75;24.85;;;8.40;99.90;;;;;;5051895;28;19909;-75
2022/11/09 04:24:40;;;;;;;;;;;8.40;99.90;;;;;;5034313;28;20032;-76
2022/11/09 04:27:05;;;;;;;35.65;18.58;;;8.60;99.90;;;;;;5052918;28;19913;-76
2022/11/09 04:29:31;;;;;;;;;;;8.80;99.90;;;;;;5053558;28;20044;-77
2022/11/09 04:31:56;;;;;;;27.92;15.35;;;8.80;99.90;;;;;;5034699;28;19919;-77
2022/11/09 04:34:22;;;;;;;;;;;8.70;99.90;;;;;;5053432;28;20033;-77
2022/11/09 04:36:48;;;;;;;24.67;14.68;;;8.70;99.90;;;;;;5052929;28;19916;-77
2022/11/09 04:39:13;;;;;;;;;;;8.70;99.90;;;;;;5036511;28;20501;-76
2022/11/09 04:41:39;;;;;;;23.95;14.85;;;8.60;99.90;;;;;;5035418;28;19909;-77
2022/11/09 04:44:04;;;;;;;;;;;8.40;99.90;;;;;;5054322;28;20043;-77
2022/11/09 04:46:30;;;;;;;24.13;14.68;;;8.40;99.90;;;;;;5053320;28;19963;-76
2022/11/09 04:48:56;;;;;;;;;;;8.40;99.90;;;;;;5036439;28;20035;-77
2022/11/09 04:51:21;;;;;;;28.33;15.63;;;8.50;99.90;;;;;;5036638;28;19916;-76
2022/11/09 04:53:47;;;;;;;;;;;8.50;99.90;;;;;;5037935;28;20136;-76
2022/11/09 04:56:13;;;;;;;42.88;23.65;;;8.50;99.90;;;;;;5036126;28;19954;-76
2022/11/09 04:58:38;;;;;;;;;;;8.50;99.90;;;;;;5032815;28;20381;-77
2022/11/09 05:01:11;;;;;;;58.50;28.10;;;8.50;99.90;;;;;;5032256;28;19915;-76
2022/11/09 05:03:37;;;;;;;57.03;27.20;;;8.50;99.90;;;;;;5049457;28;20433;-76
2022/11/09 05:06:30;;;;;;;53.33;27.83;;;8.50;99.90;;;;;;5032211;28;20041;-77
2022/11/09 05:08:49;;;;;;;52.13;24.50;;;8.50;99.90;;;;;;5049877;28;20025;-77
2022/11/09 05:11:14;;;;;;;;;;;8.50;99.90;;;;;;5049970;28;20036;-77
2022/11/09 05:13:40;;;;;;;51.55;23.63;;;8.50;99.90;;;;;;5030650;28;19909;-77
2022/11/09 05:16:06;;;;;;;;;;;8.50;99.90;;;;;;5031385;28;20542;-77
2022/11/09 05:18:31;;;;;;;48.20;24.20;;;8.50;99.90;;;;;;5030203;28;19908;-77
2022/11/09 05:21:00;;;;;;;;;;;8.50;99.90;;;;;;5031563;28;20495;-76
2022/11/09 05:26:10;;;;;;;45.00;24.13;;;8.40;99.90;;;;;;5048614;28;20102;-77
2022/11/09 05:28:36;;;;;;;;;;;8.40;99.90;;;;;;5030574;28;20456;-77
2022/11/09 05:31:01;;;;;;;52.13;24.05;;;8.50;99.90;;;;;;5030693;28;19908;-76
2022/11/09 05:33:27;;;;;;;;;;;8.40;99.90;;;;;;5030826;28;20484;-76
2022/11/09 05:35:56;;;;;;;47.92;24.30;;;8.40;99.90;;;;;;5031018;28;19904;-77
2022/11/09 05:38:23;;;;;;;36.55;19.50;;;8.40;99.90;;;;;;5048597;28;20088;-77
2022/11/09 05:40:49;;;;;;;32.58;19.83;;;8.40;99.90;;;;;;5031170;28;20024;-76
2022/11/09 05:43:15;;;;;;;38.78;20.02;;;8.40;99.90;;;;;;5031211;28;20032;-76
2022/11/09 05:45:41;;;;;;;;;;;8.40;99.90;;;;;;5031862;28;20025;-77
2022/11/09 05:48:07;;;;;;;30.13;18.20;;;8.20;99.90;;;;;;5049983;28;19932;-77
2022/11/09 05:50:32;;;;;;;;;;;8.10;99.90;;;;;;5031315;28;20120;-76
2022/11/09 05:52:59;;;;;;;34.40;18.73;;;8.10;99.90;;;;;;5032040;28;19923;-77
2022/11/09 05:55:25;;;;;;;33.85;18.17;;;8.00;99.90;;;;;;5050382;28;20043;-75
2022/11/09 05:57:50;;;;;;;;;;;8.10;99.90;;;;;;5050302;28;20497;-77
2022/11/09 06:00:16;;;;;;;30.92;16.13;;;8.10;99.90;;;;;;5031409;28;20363;-76
2022/11/09 06:02:42;;;;;;;;;;;8.00;99.90;;;;;;5048379;28;20021;-75
2022/11/09 06:05:08;;;;;;;37.63;18.45;;;7.90;99.90;;;;;;5048655;28;19919;-76
2022/11/09 06:07:33;;;;;;;36.90;17.88;;;7.90;99.90;;;;;;5030988;28;20275;-76
2022/11/09 06:09:59;;;;;;;;;;;7.90;99.90;;;;;;5048585;28;20079;-76
2022/11/09 06:12:25;;;;;;;33.13;17.48;;;7.90;99.90;;;;;;5047999;28;20281;-77
2022/11/09 06:14:50;;;;;;;;;;;7.90;99.90;;;;;;5030921;28;20098;-77
2022/11/09 06:17:16;;;;;;;31.08;16.48;;;7.80;99.90;;;;;;5048831;28;19934;-76
2022/11/09 06:19:42;;;;;;;;;;;7.80;99.90;;;;;;5030499;28;20059;-75
2022/11/09 06:22:07;;;;;;;30.08;14.57;;;8.00;99.90;;;;;;5049420;28;19909;-76
2022/11/09 06:24:33;;;;;;;;;;;7.80;99.90;;;;;;5031893;28;20025;-77
2022/11/09 06:26:59;;;;;;;32.92;15.00;;;7.70;99.90;;;;;;5048190;28;20408;-77
2022/11/09 06:29:24;;;;;;;28.80;15.45;;;7.80;99.90;;;;;;5031162;28;20676;-77
2022/11/09 06:31:50;;;;;;;;;;;7.90;99.90;;;;;;5048969;28;20044;-76
2022/11/09 06:34:16;;;;;;;38.55;21.33;;;7.90;99.90;;;;;;5049458;28;19909;-76
2022/11/09 06:36:44;;;;;;;;;;;7.80;99.90;;;;;;5030585;28;20025;-75
2022/11/09 06:39:10;;;;;;;30.85;18.13;;;7.80;99.90;;;;;;5047914;28;19916;-76
2022/11/09 06:41:35;;;;;;;;;;;7.90;99.90;;;;;;5048230;28;20108;-76
2022/11/09 06:44:01;;;;;;;29.45;15.27;;;7.90;99.90;;;;;;5048270;28;20040;-76
2022/11/09 06:46:27;;;;;;;;;;;8.00;99.90;;;;;;5049011;28;20071;-76
2022/11/09 06:48:52;;;;;;;24.33;14.50;;;8.00;99.90;;;;;;5030939;28;19908;-74
2022/11/09 06:51:18;;;;;;;;;;;8.10;99.90;;;;;;5049651;28;20025;-76
2022/11/09 06:53:44;;;;;;;31.30;16.88;;;8.10;99.90;;;;;;5048789;28;19908;-77
2022/11/09 06:56:09;;;;;;;;;;;8.10;99.90;;;;;;5049882;28;20052;-76
2022/11/09 06:58:35;;;;;;;34.95;20.45;;;8.20;99.90;;;;;;5031084;28;20357;-77
2022/11/09 07:01:12;;;;;;;;;;;8.20;99.90;;;;;;5049940;28;20036;-76
2022/11/09 07:03:38;;;;;;;33.72;18.92;;;8.20;99.90;;;;;;5031262;28;20027;-76
2022/11/09 07:06:06;;;;;;;34.78;19.42;;;8.30;99.90;;;;;;5029668;28;20037;-76
2022/11/09 07:08:32;;;;;;;36.00;19.50;;;8.40;99.90;;;;;;5030185;28;20027;-76
2022/11/09 07:11:14;;;;;;;34.78;19.08;;;8.40;99.90;;;;;;5031682;28;20029;-77
2022/11/09 07:13:40;;;;;;;32.58;17.75;;;8.50;99.90;;;;;;5032932;28;20100;-76
2022/11/09 07:16:06;;;;;;;;;;;8.60;99.90;;;;;;5031313;28;20089;-77
2022/11/09 07:18:33;;;;;;;26.42;15.85;;;8.60;99.90;;;;;;5029182;28;19912;-76
2022/11/09 07:20:59;;;;;;;23.23;15.32;;;8.60;99.90;;;;;;5029638;28;20546;-76
2022/11/09 07:23:24;;;;;;;;;;;8.70;99.90;;;;;;5029811;28;20338;-76
2022/11/09 07:25:51;;;;;;;23.30;14.65;;;8.70;99.90;;;;;;5047135;28;20431;-77
2022/11/09 07:28:17;;;;;;;24.33;13.80;;;8.80;99.90;;;;;;5047956;28;20029;-77
2022/11/09 07:30:43;;;;;;;;;;;8.80;99.90;;;;;;5029961;28;20194;-76
2022/11/09 07:33:18;;;;;;;22.83;13.73;;;8.80;99.90;;;;;;5028980;28;19976;-77
2022/11/09 07:35:45;;;;;;;24.50;14.33;;;8.60;99.90;;;;;;5013537;28;20591;-76
2022/11/09 07:38:11;;;;;;;29.08;15.40;;;8.60;99.90;;;;;;5046924;28;20501;-77
2022/11/09 07:40:36;;;;;;;;;;;8.50;99.90;;;;;;5029741;28;20024;-77
2022/11/09 07:43:04;;;;;;;24.13;12.23;;;8.50;99.90;;;;;;5048007;28;19912;-76
2022/11/09 07:45:31;;;;;;;25.27;15.30;;;8.60;99.90;;;;;;5046375;28;20039;-77
2022/11/09 07:48:01;;;;;;;26.98;15.43;;;8.60;99.90;;;;;;5029374;28;20032;-76
2022/11/09 07:50:28;;;;;;;25.95;14.73;;;8.60;99.90;;;;;;5031253;28;20496;-77
2022/11/09 07:52:58;;;;;;;27.17;16.33;;;8.50;99.90;;;;;;5033014;28;20036;-77
2022/11/09 07:55:25;;;;;;;29.58;16.17;;;8.50;99.90;;;;;;5033877;28;20111;-76
2022/11/09 07:57:59;;;;;;;33.95;20.83;;;8.50;99.90;;;;;;5033391;28;20097;-77
2022/11/09 08:00:26;;;;;;;31.02;18.65;;;8.50;99.90;;;;;;5033432;28;20033;-76
2022/11/09 08:02:52;;;;;;;33.03;18.33;;;8.50;99.90;;;;;;5050411;28;20032;-77
2022/11/09 08:05:17;;;;;;;;;;;8.50;99.90;;;;;;5051222;28;20348;-76
2022/11/09 08:07:43;;;;;;;26.83;16.05;;;8.70;99.90;;;;;;5050879;28;19909;-76
2022/11/09 08:10:09;;;;;;;;;;;8.70;99.90;;;;;;5051116;28;20032;-77
2022/11/09 08:12:35;;;;;;;22.67;13.55;;;8.70;99.90;;;;;;5051198;28;19961;-77
2022/11/09 08:15:00;;;;;;;;;;;8.80;99.90;;;;;;5032721;28;20032;-77
2022/11/09 08:17:26;;;;;;;23.73;14.23;;;8.90;99.90;;;;;;5033343;28;20014;-76
2022/11/09 08:19:51;;;;;;;;;;;8.90;99.90;;;;;;5033982;28;20067;-76
2022/11/09 08:22:17;;;;;;;51.40;30.90;;;8.90;99.90;;;;;;5033201;28;19916;-76
2022/11/09 08:24:42;;;;;;;;;;;9.00;99.90;;;;;;5050841;28;20040;-77
2022/11/09 08:27:08;;;;;;;66.35;34.13;;;9.10;99.90;;;;;;5033182;28;20055;-77
2022/11/09 08:29:34;;;;;;;;;;;9.10;99.90;;;;;;5033283;28;20041;-76
2022/11/09 08:31:59;;;;;;;38.28;20.35;;;9.00;99.90;;;;;;5050716;28;20407;-77
2022/11/09 08:34:25;;;;;;;;;;;8.90;99.90;;;;;;5033931;28;20120;-77
2022/11/09 08:36:50;;;;;;;25.42;14.32;;;9.00;99.90;;;;;;5050398;28;19940;-76
2022/11/09 08:39:16;;;;;;;;;;;9.00;99.90;;;;;;5033160;28;20033;-77
2022/11/09 08:41:42;;;;;;;23.98;15.48;;;9.10;99.90;;;;;;5033479;28;19912;-77
2022/11/09 08:44:07;;;;;;;;;;;9.00;99.90;;;;;;5032986;28;20124;-77
2022/11/09 08:46:33;;;;;;;35.75;16.98;;;9.10;99.90;;;;;;5051178;28;19917;-76
2022/11/09 08:48:58;;;;;;;;;;;9.10;99.90;;;;;;5034050;28;20031;-76
2022/11/09 08:51:24;;;;;;;27.80;15.52;;;9.20;99.90;;;;;;5032731;28;19967;-76
2022/11/09 08:53:50;;;;;;;;;;;9.40;99.90;;;;;;5051951;28;20060;-75
2022/11/09 08:56:17;;;;;;;32.30;17.92;;;9.40;99.90;;;;;;5033711;28;20231;-76
2022/11/09 08:58:44;;;;;;;30.20;16.38;;;9.30;99.90;;;;;;5032898;28;20025;-77
2022/11/09 09:01:10;;;;;;;25.38;14.98;;;9.30;99.90;;;;;;5050018;28;20056;-76
2022/11/09 09:03:36;;;;;;;29.25;16.10;;;9.30;99.90;;;;;;5051096;28;20044;-76
2022/11/09 09:06:05;;;;;;;;;;;9.40;99.90;;;;;;5034484;28;20025;-76
2022/11/09 09:08:31;;;;;;;30.02;17.65;;;9.60;99.90;;;;;;5051265;28;19916;-76
2022/11/09 09:11:00;;;;;;;;;;;9.70;99.90;;;;;;5033522;28;20041;-76
2022/11/09 09:13:25;;;;;;;25.75;15.55;;;9.60;99.90;;;;;;5032649;28;19915;-76
2022/11/09 09:15:51;;;;;;;;;;;9.70;99.90;;;;;;5052830;28;20025;-76
2022/11/09 09:18:16;;;;;;;36.80;18.35;;;9.70;99.90;;;;;;5032524;28;19912;-77
2022/11/09 09:20:42;;;;;;;;;;;9.80;99.90;;;;;;5052639;28;20036;-77
2022/11/09 09:23:08;;;;;;;28.10;16.70;;;9.70;99.90;;;;;;5052092;28;19908;-77
2022/11/09 09:25:33;;;;;;;;;;;9.70;99.90;;;;;;5034283;28;20451;-77
2022/11/09 09:27:59;;;;;;;27.38;16.50;;;9.70;99.90;;;;;;5052233;28;20400;-77
2022/11/09 09:30:24;;;;;;;;;;;9.70;99.90;;;;;;5033093;28;20066;-76
2022/11/09 09:32:50;;;;;;;27.80;17.02;;;9.70;99.90;;;;;;5032639;28;20403;-76
2022/11/09 09:35:15;;;;;;;;;;;9.70;99.90;;;;;;5036839;28;20017;-77
2022/11/09 09:37:43;;;;;;;40.50;23.23;;;9.70;99.90;;;;;;5049461;28;20003;-76
2022/11/09 09:40:24;;;;;;;36.95;20.85;;;9.70;99.90;;;;;;5048891;28;20027;-76
2022/11/09 09:42:53;;;;;;;31.75;18.17;;;9.80;99.90;;;;;;5048427;28;20020;-77
2022/11/09 09:45:23;;;;;;;33.78;20.17;;;9.90;99.90;;;;;;5029633;28;20037;-76
2022/11/09 09:48:17;;;;;;;35.22;20.90;;;9.90;99.90;;;;;;5047651;28;20029;-77
2022/11/09 09:50:52;;;;;;;36.03;20.77;;;9.80;99.90;;;;;;5030064;28;20037;-76
2022/11/09 09:53:25;;;;;;;29.40;18.27;;;9.90;99.90;;;;;;5047840;28;20074;-76
2022/11/09 09:56:21;;;;;;;70.35;33.97;;;10.00;99.90;;;;;;5029928;28;20412;-76
2022/11/09 09:59:13;;;;;;;37.80;21.17;;;10.00;99.90;;;;;;5040639;28;20183;-76
2022/11/09 10:01:42;;;;;;;37.45;22.38;;;10.10;99.90;;;;;;5047586;28;20025;-77
2022/11/09 10:04:21;;;;;;;39.20;24.48;;;10.20;99.90;;;;;;5048065;28;20029;-77
2022/11/09 10:07:21;;;;;;;39.50;23.98;;;10.10;99.90;;;;;;5047792;28;20041;-76
2022/11/09 10:10:01;;;;;;;38.38;24.52;;;10.20;99.90;;;;;;4962160;28;20043;-77
2022/11/09 10:12:33;;;;;;;34.78;21.70;;;10.20;99.90;;;;;;5047260;28;20033;-76
2022/11/09 10:15:04;;;;;;;34.33;20.95;;;10.20;99.90;;;;;;5046013;28;20025;-76
2022/11/09 10:17:51;;;;;;;36.05;22.35;;;10.30;99.90;;;;;;5046776;28;20033;-77
2022/11/09 10:20:32;;;;;;;31.45;20.02;;;10.40;99.90;;;;;;5029013;28;20035;-77
2022/11/09 10:23:22;;;;;;;38.88;23.42;;;10.50;99.90;;;;;;5028865;28;20671;-77
2022/11/09 10:25:55;;;;;;;37.22;23.10;;;10.60;99.90;;;;;;5028227;28;20417;-76
2022/11/09 10:28:25;;;;;;;38.92;22.85;;;10.60;99.90;;;;;;5046700;28;20086;-77
2022/11/09 10:30:50;;;;;;;46.33;24.33;;;10.60;99.90;;;;;;5046281;28;20028;-76
2022/11/09 10:33:19;;;;;;;;;;;10.40;99.90;;;;;;5047319;28;20163;-77
2022/11/09 10:35:52;;;;;;;40.17;24.35;;;10.60;99.90;;;;;;5028908;28;19916;-77
2022/11/09 10:38:24;;;;;;;40.47;23.27;;;10.40;99.90;;;;;;5028668;28;20414;-77
2022/11/09 10:41:01;;;;;;;38.97;24.27;;;10.30;99.90;;;;;;5028779;28;20086;-77
2022/11/09 10:43:27;;;;;;;60.35;34.63;;;10.40;99.90;;;;;;5028707;28;20518;-77
2022/11/09 10:46:03;;;;;;;;;;;10.30;99.90;;;;;;5046450;28;20505;-77
2022/11/09 10:48:37;;;;;;;36.38;22.27;;;10.30;99.90;;;;;;5027935;28;19948;-77
2022/11/09 10:51:03;;;;;;;37.42;23.00;;;10.40;99.90;;;;;;5028732;28;20247;-77
2022/11/09 10:53:30;;;;;;;;;;;10.50;99.90;;;;;;5028916;28;20442;-76
2022/11/09 10:55:55;;;;;;;35.80;22.90;;;10.50;99.90;;;;;;5028310;28;19908;-78
2022/11/09 10:58:21;;;;;;;;;;;10.50;99.90;;;;;;5029023;28;20045;-77
2022/11/09 11:01:20;;;;;;;40.92;23.00;;;10.60;99.90;;;;;;5046561;28;19916;-76
2022/11/09 11:03:49;;;;;;;42.83;24.05;;;10.60;99.90;;;;;;4986265;28;20037;-76
2022/11/09 11:06:21;;;;;;;38.92;22.88;;;10.60;99.90;;;;;;5046294;28;20033;-77
2022/11/09 11:09:11;;;;;;;43.47;23.38;;;10.60;99.90;;;;;;5046808;28;20064;-77
2022/11/09 11:11:38;;;;;;;38.38;22.77;;;10.60;99.90;;;;;;5028291;28;20386;-76
2022/11/09 11:14:17;;;;;;;38.53;22.90;;;10.70;99.90;;;;;;5046234;28;20057;-76
2022/11/09 11:16:43;;;;;;;45.45;24.00;;;10.60;99.90;;;;;;5028597;28;20394;-77
2022/11/09 11:19:44;;;;;;;36.58;21.98;;;10.60;99.90;;;;;;5047217;28;20040;-77
2022/11/09 11:22:11;;;;;;;38.60;22.58;;;10.70;99.90;;;;;;4965735;28;20023;-76
2022/11/09 11:24:55;;;;;;;41.08;23.38;;;10.60;99.90;;;;;;5013406;28;20044;-76
2022/11/09 11:27:38;;;;;;;39.20;23.98;;;10.60;99.90;;;;;;5051150;28;20150;-76
2022/11/09 11:30:38;;;;;;;46.72;26.88;;;10.40;99.90;;;;;;5050466;28;20029;-77
2022/11/09 11:33:13;;;;;;;37.95;24.05;;;10.30;99.90;;;;;;4990737;28;20043;-77
2022/11/09 11:35:48;;;;;;;48.35;27.88;;;10.30;99.90;;;;;;5050437;28;20025;-76
2022/11/09 11:38:14;;;;;;;44.42;25.33;;;10.20;99.90;;;;;;5050725;28;20025;-77
2022/11/09 11:40:58;;;;;;;;;;;10.30;99.90;;;;;;5033699;28;20032;-77
2022/11/09 11:43:53;;;;;;;43.88;26.60;;;10.30;99.90;;;;;;5033173;28;19905;-77
2022/11/09 11:46:39;;;;;;;51.53;29.05;;;10.30;99.90;;;;;;5033885;28;20044;-77
2022/11/09 11:49:44;;;;;;;49.60;27.15;;;10.20;99.90;;;;;;5051433;28;20040;-76
2022/11/09 11:52:39;;;;;;;53.58;27.90;;;10.20;99.90;;;;;;5033385;28;20095;-77
2022/11/09 11:55:18;;;;;;;55.25;27.52;;;10.20;99.90;;;;;;5030682;28;20025;-77
2022/11/09 11:58:05;;;;;;;57.03;29.35;;;10.30;99.90;;;;;;5049517;28;20112;-76
2022/11/09 12:00:44;;;;;;;57.47;30.08;;;10.10;99.90;;;;;;5048392;28;20039;-76
2022/11/09 12:03:22;;;;;;;54.22;28.52;;;10.00;99.90;;;;;;5049059;28;20049;-75
2022/11/09 12:06:12;;;;;;;59.08;31.83;;;10.10;99.90;;;;;;5028189;28;20087;-75
2022/11/09 12:09:22;;;;;;;73.75;35.95;;;10.00;99.90;;;;;;5028758;28;20087;-76
2022/11/09 12:11:59;;;;;;;62.70;32.03;;;10.00;99.90;;;;;;4950757;28;20038;-77
2022/11/09 12:14:41;;;;;;;64.53;31.23;;;9.90;99.90;;;;;;5042714;28;20521;-75
2022/11/09 12:17:19;;;;;;;66.95;34.42;;;9.80;99.90;;;;;;5025107;28;20044;-76
2022/11/09 12:20:19;;;;;;;72.00;34.45;;;9.90;99.90;;;;;;5041926;28;20072;-75
2022/11/09 12:23:05;;;;;;;71.38;33.40;;;9.80;99.90;;;;;;5047922;28;20036;-76
2022/11/09 12:26:02;;;;;;;69.15;34.33;;;9.70;99.90;;;;;;5046189;28;20052;-75
2022/11/09 12:28:54;;;;;;;68.35;33.55;;;9.80;99.90;;;;;;5047811;28;20049;-76
2022/11/09 12:31:50;;;;;;;68.68;32.28;;;9.70;99.90;;;;;;5030663;28;20449;-76
2022/11/09 12:34:30;;;;;;;80.40;39.85;;;9.70;99.90;;;;;;5032981;28;20060;-76
2022/11/09 12:37:01;;;;;;;85.85;39.45;;;9.60;99.90;;;;;;5045538;28;20037;-75
2022/11/09 12:39:51;;;;;;;93.75;38.38;;;9.50;99.90;;;;;;5028594;28;20123;-75
2022/11/09 12:42:28;;;;;;;77.43;35.97;;;9.50;99.90;;;;;;5030575;28;20037;-75
2022/11/09 12:45:03;;;;;;;86.22;40.35;;;9.40;99.90;;;;;;5047700;28;20494;-76
2022/11/09 12:47:35;;;;;;;84.78;38.00;;;9.50;99.90;;;;;;5047428;28;20048;-75
2022/11/09 12:50:01;;;;;;;80.47;37.40;;;9.40;99.90;;;;;;5031016;28;20518;-75
2022/11/09 12:52:27;;;;;;;;;;;9.50;99.90;;;;;;5048361;28;20068;-75
2022/11/09 12:54:54;;;;;;;94.95;40.92;;;9.50;99.90;;;;;;5030897;28;19960;-75
2022/11/09 12:57:24;;;;;;;93.47;43.75;;;9.40;99.90;;;;;;5029951;28;20635;-76
2022/11/09 12:59:56;;;;;;;100.80;43.72;;;9.50;99.90;;;;;;5028920;28;20064;-76
2022/11/09 13:02:41;;;;;;;97.65;46.95;;;9.40;99.90;;;;;;5030851;28;20032;-75
2022/11/09 13:05:33;;;;;;;97.10;42.67;;;9.40;99.90;;;;;;5031607;28;20079;-76
2022/11/09 13:08:00;;;;;;;86.18;39.20;;;9.40;99.90;;;;;;5050120;28;20029;-76
2022/11/09 13:10:38;;;;;;;90.13;42.33;;;9.40;99.90;;;;;;5031995;28;20025;-77
2022/11/09 13:13:21;;;;;;;112.40;48.72;;;9.50;99.90;;;;;;5031228;28;20401;-76
2022/11/09 13:16:03;;;;;;;132.82;60.78;;;9.40;99.90;;;;;;5049872;28;20025;-77
2022/11/09 13:18:31;;;;;;;83.40;40.60;;;9.40;99.90;;;;;;5031343;28;20481;-76
2022/11/09 13:21:20;;;;;;;106.95;46.95;;;9.50;99.90;;;;;;5031990;28;20029;-76